Time;durP1;ratioP1;P1;durP2;ratioP2;P2;SDS_P1;SDS_P2;PMS_P1;PMS_P2;Temp;Humidity;BMP_temperature;BMP_pressure;BME280_temperature;BME280_humidity;BME280_pressure;Samples;Min_cycle;Max_cycle;Signal;HPM_P1;HPM_P2
2023/05/26 00:01:36;;;;;;;6.23;2.63;;;21.00;57.70;;;;;;5078390;28;20194;-43
2023/05/26 00:04:09;;;;;;;6.97;2.90;;;21.00;57.70;;;;;;5072871;28;20252;-43
2023/05/26 00:06:42;;;;;;;7.57;2.90;;;21.00;57.70;;;;;;5072083;28;20193;-43
2023/05/26 00:09:14;;;;;;;6.77;2.70;;;21.00;57.60;;;;;;5060071;28;20537;-43
2023/05/26 00:11:45;;;;;;;5.43;2.40;;;21.00;57.60;;;;;;5051264;28;20194;-43
2023/05/26 00:14:16;;;;;;;5.33;2.50;;;21.00;57.60;;;;;;5047294;28;20233;-45
2023/05/26 00:16:47;;;;;;;6.27;2.83;;;21.00;57.60;;;;;;5050369;28;20627;-44
2023/05/26 00:19:17;;;;;;;5.93;2.43;;;21.00;57.50;;;;;;5069622;28;20201;-43
2023/05/26 00:21:47;;;;;;;7.53;2.70;;;21.00;57.50;;;;;;5051201;28;20185;-44
2023/05/26 00:24:15;;;;;;;7.63;2.60;;;21.00;57.40;;;;;;5055865;28;20784;-43
2023/05/26 00:26:45;;;;;;;9.07;3.10;;;20.90;57.30;;;;;;5068255;28;20221;-44
2023/05/26 00:29:23;;;;;;;4.60;2.50;;;20.90;57.20;;;;;;5070111;28;20189;-45
2023/05/26 00:31:58;;;;;;;6.43;2.67;;;20.90;57.30;;;;;;5070012;28;20186;-44
2023/05/26 00:34:26;;;;;;;5.23;2.57;;;20.90;57.20;;;;;;5067739;28;20658;-43
2023/05/26 00:36:54;;;;;;;5.13;2.80;;;20.90;57.20;;;;;;5033427;28;20233;-43
2023/05/26 00:39:23;;;;;;;6.57;2.80;;;20.90;57.20;;;;;;5045183;28;20242;-44
2023/05/26 00:41:55;;;;;;;5.50;2.50;;;20.90;57.10;;;;;;5036655;28;20194;-43
2023/05/26 00:44:29;;;;;;;6.30;2.50;;;20.90;57.20;;;;;;5040331;28;20207;-43
2023/05/26 00:46:58;;;;;;;7.30;2.93;;;20.90;57.10;;;;;;5049540;28;20651;-44
2023/05/26 00:49:31;;;;;;;6.47;2.80;;;20.90;57.10;;;;;;5042344;28;20195;-44
2023/05/26 00:52:01;;;;;;;6.30;2.50;;;20.90;57.10;;;;;;5039524;28;20636;-43
2023/05/26 00:54:33;;;;;;;9.03;3.00;;;20.90;57.20;;;;;;5031698;28;20222;-44
2023/05/26 00:57:07;;;;;;;8.23;2.90;;;20.90;57.00;;;;;;5024784;28;20230;-43
2023/05/26 00:59:43;;;;;;;6.63;3.07;;;20.90;57.00;;;;;;5035859;28;20211;-44
2023/05/26 01:02:12;;;;;;;8.40;2.97;;;20.80;57.00;;;;;;5017218;28;20199;-44
2023/05/26 01:04:42;;;;;;;6.17;2.70;;;20.80;57.00;;;;;;5046948;28;20248;-43
2023/05/26 01:07:13;;;;;;;6.83;2.60;;;20.80;57.00;;;;;;5030179;28;20192;-43
2023/05/26 01:09:45;;;;;;;6.33;2.60;;;20.80;56.90;;;;;;5035280;28;20202;-43
2023/05/26 01:12:24;;;;;;;4.50;2.60;;;20.80;56.90;;;;;;5039899;28;20213;-44
2023/05/26 01:15:15;;;;;;;5.03;2.53;;;20.80;56.90;;;;;;5044861;28;20219;-44
2023/05/26 01:18:22;;;;;;;8.23;3.20;;;20.80;56.90;;;;;;5057340;28;20583;-43
2023/05/26 01:21:06;;;;;;;6.23;2.80;;;20.80;56.90;;;;;;5044914;28;20205;-43
2023/05/26 01:23:59;;;;;;;5.27;2.33;;;20.70;56.90;;;;;;5041686;28;20183;-43
2023/05/26 01:26:57;;;;;;;6.57;2.60;;;20.80;56.90;;;;;;5045092;28;20607;-45
2023/05/26 01:29:34;;;;;;;6.37;2.50;;;20.80;56.90;;;;;;5059519;28;20545;-44
2023/05/26 01:32:15;;;;;;;4.37;2.13;;;20.80;56.90;;;;;;5032581;28;20252;-43
2023/05/26 01:34:48;;;;;;;7.60;2.90;;;20.80;56.80;;;;;;5027859;28;20202;-44
2023/05/26 01:37:18;;;;;;;7.33;2.87;;;20.70;56.80;;;;;;5049313;28;20217;-44
2023/05/26 01:39:48;;;;;;;4.50;2.23;;;20.70;56.70;;;;;;5065769;28;20675;-43
2023/05/26 01:42:32;;;;;;;12.10;3.03;;;20.70;56.80;;;;;;5051432;28;20642;-43
2023/05/26 01:45:21;;;;;;;4.60;2.27;;;20.70;56.70;;;;;;5035034;28;20231;-43
2023/05/26 01:48:03;;;;;;;5.43;2.27;;;20.70;56.70;;;;;;5060802;28;20200;-44
2023/05/26 01:50:55;;;;;;;7.40;2.97;;;20.70;57.30;;;;;;5066856;28;20213;-44
2023/05/26 01:53:30;;;;;;;4.10;2.40;;;20.70;56.70;;;;;;5076054;28;20223;-43
2023/05/26 01:56:03;;;;;;;4.43;2.43;;;20.60;57.20;;;;;;5051547;28;20268;-43
2023/05/26 01:58:33;;;;;;;6.77;2.83;;;20.70;56.60;;;;;;5067322;28;20194;-45
2023/05/26 02:01:15;;;;;;;4.77;2.40;;;20.70;56.60;;;;;;5069046;28;20888;-43
2023/05/26 02:03:43;;;;;;;8.33;3.03;;;20.60;56.60;;;;;;5066311;28;20817;-44
2023/05/26 02:06:12;;;;;;;4.63;2.73;;;20.60;56.50;;;;;;5055855;28;20206;-44
2023/05/26 02:08:40;;;;;;;7.03;2.47;;;20.60;56.50;;;;;;5053165;28;20259;-43
2023/05/26 02:11:11;;;;;;;5.87;2.07;;;20.60;56.50;;;;;;5068917;28;20541;-43
2023/05/26 02:13:39;;;;;;;5.57;2.47;;;20.60;56.50;;;;;;5060068;28;20611;-43
2023/05/26 02:16:24;;;;;;;6.10;2.50;;;20.60;56.50;;;;;;5048095;28;20213;-44
2023/05/26 02:18:54;;;;;;;4.90;2.40;;;20.60;56.50;;;;;;5057343;28;20562;-43
2023/05/26 02:21:27;;;;;;;4.67;2.13;;;20.60;56.50;;;;;;5054269;28;20213;-44
2023/05/26 02:23:57;;;;;;;8.33;2.93;;;20.60;56.50;;;;;;5064782;28;20826;-43
2023/05/26 02:26:28;;;;;;;6.10;2.90;;;20.60;56.40;;;;;;5067957;28;20816;-44
2023/05/26 02:28:58;;;;;;;6.87;2.13;;;20.60;56.50;;;;;;5065751;28;20194;-43
2023/05/26 02:31:32;;;;;;;7.37;2.50;;;20.50;56.40;;;;;;5067627;28;20193;-43
2023/05/26 02:34:11;;;;;;;6.17;2.67;;;20.60;56.40;;;;;;5069866;28;20207;-45
2023/05/26 02:36:41;;;;;;;6.53;2.53;;;20.50;56.30;;;;;;5054549;28;20241;-43
2023/05/26 02:39:17;;;;;;;6.43;2.43;;;20.50;56.40;;;;;;5071085;28;20210;-45
2023/05/26 02:41:46;;;;;;;4.93;2.17;;;20.50;56.30;;;;;;5083303;28;20255;-44
2023/05/26 02:44:27;;;;;;;8.00;2.70;;;20.50;56.30;;;;;;5071288;28;20196;-43
2023/05/26 02:46:57;;;;;;;6.20;2.37;;;20.50;56.30;;;;;;5063700;28;20327;-43
2023/05/26 02:49:27;;;;;;;5.77;2.50;;;20.50;56.30;;;;;;5073794;28;20197;-43
2023/05/26 02:51:58;;;;;;;4.87;2.10;;;20.50;56.30;;;;;;5068007;28;20682;-44
2023/05/26 02:54:30;;;;;;;5.77;2.53;;;20.50;56.20;;;;;;5056764;28;20283;-43
2023/05/26 02:57:01;;;;;;;6.77;2.33;;;20.50;56.20;;;;;;5073628;28;20204;-43
2023/05/26 02:59:32;;;;;;;6.10;2.60;;;20.50;56.30;;;;;;5070841;28;20177;-43
2023/05/26 03:02:00;;;;;;;5.63;2.37;;;20.50;56.30;;;;;;5046838;28;20291;-43
2023/05/26 03:04:31;;;;;;;5.67;2.13;;;20.40;56.10;;;;;;5061621;28;20298;-43
2023/05/26 03:07:02;;;;;;;7.63;2.80;;;20.40;56.10;;;;;;5065028;28;20186;-43
2023/05/26 03:09:32;;;;;;;7.00;2.67;;;20.40;56.20;;;;;;5072543;28;20589;-43
2023/05/26 03:12:05;;;;;;;6.30;2.63;;;20.40;56.20;;;;;;5057122;28;20209;-44
2023/05/26 03:14:36;;;;;;;4.97;2.10;;;20.40;56.20;;;;;;5051622;28;20202;-43
2023/05/26 03:17:07;;;;;;;5.13;2.63;;;20.40;56.10;;;;;;5068093;28;20206;-44
2023/05/26 03:19:48;;;;;;;6.97;2.67;;;20.40;56.10;;;;;;5058739;28;20226;-43
2023/05/26 03:22:19;;;;;;;7.43;2.70;;;20.40;56.00;;;;;;5050585;28;20198;-44
2023/05/26 03:25:08;;;;;;;7.80;2.80;;;20.40;56.00;;;;;;5065986;28;20294;-43
2023/05/26 03:27:39;;;;;;;6.73;2.67;;;20.40;56.00;;;;;;5052750;28;20628;-43
2023/05/26 03:30:17;;;;;;;7.50;2.80;;;20.40;56.00;;;;;;5053852;28;20197;-44
2023/05/26 03:32:54;;;;;;;6.97;2.57;;;20.30;56.00;;;;;;5064469;28;20619;-44
2023/05/26 03:35:26;;;;;;;4.43;2.33;;;20.40;56.00;;;;;;5053995;28;20264;-43
2023/05/26 03:37:55;;;;;;;6.93;2.73;;;20.40;56.00;;;;;;5056123;28;20197;-43
2023/05/26 03:40:27;;;;;;;7.27;2.73;;;20.40;55.90;;;;;;5050384;28;20976;-44
2023/05/26 03:43:03;;;;;;;6.90;2.43;;;20.30;55.90;;;;;;5071098;28;20227;-43
2023/05/26 03:45:35;;;;;;;6.37;2.50;;;20.30;55.90;;;;;;5062221;28;20620;-43
2023/05/26 03:48:08;;;;;;;6.33;2.43;;;20.30;55.90;;;;;;5063716;28;20672;-44
2023/05/26 03:50:41;;;;;;;6.97;2.30;;;20.30;55.90;;;;;;5056538;28;20679;-44
2023/05/26 03:53:15;;;;;;;5.73;2.33;;;20.30;55.90;;;;;;5058854;28;20221;-44
2023/05/26 03:55:46;;;;;;;5.17;2.50;;;20.30;55.90;;;;;;5065620;28;20201;-45
2023/05/26 03:58:17;;;;;;;7.30;2.93;;;20.30;55.90;;;;;;5060320;28;20208;-44
2023/05/26 04:00:48;;;;;;;7.80;2.50;;;20.30;55.90;;;;;;5062411;28;20548;-43
2023/05/26 04:03:19;;;;;;;6.00;2.67;;;20.30;55.80;;;;;;5060929;28;20210;-43
2023/05/26 04:05:48;;;;;;;6.27;2.53;;;20.30;55.80;;;;;;5067874;28;20202;-43
2023/05/26 04:08:23;;;;;;;5.50;2.17;;;20.30;55.80;;;;;;5055488;28;20289;-43
2023/05/26 04:10:54;;;;;;;5.97;2.43;;;20.30;55.80;;;;;;5044034;28;20567;-44
2023/05/26 04:13:23;;;;;;;6.43;2.30;;;20.30;55.80;;;;;;5030440;28;20187;-44
2023/05/26 04:15:58;;;;;;;6.07;2.50;;;20.30;55.80;;;;;;5037606;28;20240;-43
2023/05/26 04:18:29;;;;;;;6.93;2.47;;;20.30;55.80;;;;;;5058941;28;20291;-43
2023/05/26 04:21:01;;;;;;;7.20;2.20;;;20.20;55.70;;;;;;5060901;28;20514;-43
2023/05/26 04:23:33;;;;;;;6.03;2.57;;;20.20;55.70;;;;;;5062301;28;20197;-43
2023/05/26 04:26:04;;;;;;;5.73;2.80;;;20.20;55.80;;;;;;5048620;28;20650;-44
2023/05/26 04:28:37;;;;;;;6.50;2.30;;;20.20;55.80;;;;;;5038605;28;20225;-43
2023/05/26 04:31:08;;;;;;;5.67;2.27;;;20.20;55.70;;;;;;5032421;28;20260;-44
2023/05/26 04:33:39;;;;;;;4.10;2.07;;;20.20;55.70;;;;;;5063421;28;20566;-45
2023/05/26 04:36:13;;;;;;;6.17;2.20;;;20.20;55.70;;;;;;5059610;28;20606;-43
2023/05/26 04:38:47;;;;;;;8.63;2.80;;;20.20;55.60;;;;;;5063487;28;20251;-44
2023/05/26 04:41:18;;;;;;;5.37;2.03;;;20.20;55.70;;;;;;5070438;28;20221;-43
2023/05/26 04:43:52;;;;;;;7.23;2.50;;;20.20;55.60;;;;;;5067254;28;20503;-43
2023/05/26 04:46:24;;;;;;;4.13;2.20;;;20.20;55.70;;;;;;5062894;28;20194;-43
2023/05/26 04:48:58;;;;;;;6.10;2.30;;;20.20;55.70;;;;;;5057988;28;20345;-43
2023/05/26 04:51:29;;;;;;;6.67;2.57;;;20.20;55.70;;;;;;5062598;28;20224;-42
2023/05/26 04:54:04;;;;;;;3.80;2.00;;;20.10;55.70;;;;;;5061784;28;20186;-43
2023/05/26 04:56:32;;;;;;;6.57;2.23;;;20.10;55.50;;;;;;5071083;28;20685;-43
2023/05/26 04:58:59;;;;;;;6.27;2.80;;;20.10;55.50;;;;;;5060527;28;20226;-43
2023/05/26 05:01:32;;;;;;;6.23;2.37;;;20.20;55.60;;;;;;5053383;28;20633;-44
2023/05/26 05:04:05;;;;;;;5.47;2.30;;;20.20;55.50;;;;;;5063307;28;20234;-44
2023/05/26 05:06:37;;;;;;;7.47;2.60;;;20.10;55.50;;;;;;5070440;28;20194;-45
2023/05/26 05:09:10;;;;;;;8.87;2.33;;;20.10;55.50;;;;;;5068230;28;20197;-45
2023/05/26 05:11:40;;;;;;;8.13;2.83;;;20.10;55.40;;;;;;5062560;28;20217;-44
2023/05/26 05:14:08;;;;;;;8.33;2.60;;;20.10;55.40;;;;;;5052633;28;20209;-44
2023/05/26 05:16:37;;;;;;;5.87;2.73;;;20.10;55.40;;;;;;5057233;28;20198;-44
2023/05/26 05:19:08;;;;;;;8.00;2.77;;;20.20;55.40;;;;;;5050636;28;20264;-43
2023/05/26 05:21:39;;;;;;;7.97;3.30;;;20.10;55.40;;;;;;5063793;28;20242;-43
2023/05/26 05:24:10;;;;;;;7.00;2.50;;;20.10;55.40;;;;;;5047484;28;20194;-43
2023/05/26 05:26:41;;;;;;;6.47;2.70;;;20.10;55.40;;;;;;5061982;28;20206;-43
2023/05/26 05:29:11;;;;;;;9.93;3.00;;;20.10;55.50;;;;;;5065713;28;20186;-43
2023/05/26 05:31:41;;;;;;;9.60;3.07;;;20.10;55.50;;;;;;5064522;28;20202;-44
2023/05/26 05:34:12;;;;;;;6.90;2.60;;;20.10;55.50;;;;;;5062467;28;20210;-45
2023/05/26 05:36:42;;;;;;;10.23;3.13;;;20.10;56.10;;;;;;5068024;28;20240;-44
2023/05/26 05:39:12;;;;;;;8.63;3.10;;;20.10;55.40;;;;;;5066344;28;20815;-44
2023/05/26 05:41:41;;;;;;;9.40;3.07;;;20.10;55.40;;;;;;5053364;28;20219;-44
2023/05/26 05:44:12;;;;;;;9.87;3.27;;;20.10;55.50;;;;;;5056255;28;20226;-44
2023/05/26 05:46:45;;;;;;;11.23;3.30;;;20.10;55.40;;;;;;5053574;28;20190;-44
2023/05/26 05:49:15;;;;;;;11.20;2.97;;;20.10;55.40;;;;;;5049919;28;20620;-43
2023/05/26 05:51:47;;;;;;;10.23;3.13;;;20.10;55.40;;;;;;5051787;28;20210;-43
2023/05/26 05:54:18;;;;;;;6.80;2.70;;;20.10;55.50;;;;;;5035562;28;20198;-43
2023/05/26 05:56:51;;;;;;;7.70;3.23;;;20.10;55.40;;;;;;5052148;28;20279;-42
2023/05/26 05:59:20;;;;;;;9.63;2.97;;;20.00;55.30;;;;;;5066068;28;20206;-42
2023/05/26 06:01:48;;;;;;;9.37;3.60;;;20.10;55.40;;;;;;5059946;28;20220;-44
2023/05/26 06:04:21;;;;;;;11.07;3.50;;;20.10;55.30;;;;;;5054547;28;20209;-45
2023/05/26 06:07:04;;;;;;;8.53;3.10;;;20.10;55.30;;;;;;5071966;28;20224;-44
2023/05/26 06:09:35;;;;;;;10.33;3.03;;;20.10;56.00;;;;;;5073739;28;20182;-45
2023/05/26 06:12:06;;;;;;;12.40;3.60;;;20.10;55.30;;;;;;5060012;28;20198;-44
2023/05/26 06:14:38;;;;;;;11.37;3.17;;;20.10;55.20;;;;;;5064162;28;20213;-44
2023/05/26 06:17:08;;;;;;;8.43;3.13;;;20.00;55.20;;;;;;5058727;28;20201;-43
2023/05/26 06:19:39;;;;;;;6.73;3.10;;;20.10;55.20;;;;;;5051894;28;20190;-44
2023/05/26 06:22:12;;;;;;;11.40;3.80;;;20.10;55.20;;;;;;5060457;28;20304;-44
2023/05/26 06:24:41;;;;;;;11.10;4.10;;;20.00;55.10;;;;;;5062550;28;20217;-44
2023/05/26 06:27:11;;;;;;;7.83;2.77;;;20.00;55.10;;;;;;5055802;28;20206;-43
2023/05/26 06:29:43;;;;;;;10.30;3.10;;;20.00;55.00;;;;;;5058535;28;20202;-43
2023/05/26 06:32:12;;;;;;;11.57;3.30;;;20.10;55.00;;;;;;5056554;28;20194;-45
2023/05/26 06:34:41;;;;;;;8.07;3.10;;;20.00;54.90;;;;;;5057812;28;20194;-48
2023/05/26 06:37:12;;;;;;;8.77;3.30;;;20.10;55.00;;;;;;5052944;28;20226;-44
2023/05/26 06:39:42;;;;;;;8.90;3.13;;;20.00;54.90;;;;;;5063151;28;20971;-44
2023/05/26 06:42:13;;;;;;;9.77;3.43;;;20.10;54.90;;;;;;5064686;28;20221;-43
2023/05/26 06:44:42;;;;;;;9.00;3.30;;;20.00;54.90;;;;;;5051224;28;20224;-42
2023/05/26 06:47:18;;;;;;;11.80;3.17;;;20.00;54.80;;;;;;5070808;28;20752;-43
2023/05/26 06:49:51;;;;;;;6.80;2.83;;;20.00;54.80;;;;;;5051614;28;20204;-45
2023/05/26 06:52:21;;;;;;;11.23;3.57;;;20.00;54.70;;;;;;5058766;28;20205;-43
2023/05/26 06:54:52;;;;;;;10.60;3.03;;;20.00;54.80;;;;;;5064215;28;20301;-43
2023/05/26 06:57:20;;;;;;;12.23;3.93;;;20.00;54.70;;;;;;5069298;28;20209;-44
2023/05/26 06:59:51;;;;;;;11.53;3.33;;;20.00;54.60;;;;;;5052363;28;20194;-44
2023/05/26 07:02:20;;;;;;;10.33;3.53;;;20.00;54.60;;;;;;5057486;28;20215;-44
2023/05/26 07:04:52;;;;;;;9.13;3.30;;;20.00;54.60;;;;;;5049764;28;20202;-45
2023/05/26 07:07:27;;;;;;;11.00;3.47;;;20.00;54.60;;;;;;5052790;28;20198;-44
2023/05/26 07:09:57;;;;;;;11.60;3.87;;;20.00;54.40;;;;;;5050368;28;20197;-44
2023/05/26 07:12:26;;;;;;;9.47;3.07;;;20.00;54.50;;;;;;5041834;28;20190;-43
2023/05/26 07:14:56;;;;;;;10.47;3.67;;;20.10;54.50;;;;;;5070509;28;20232;-42
2023/05/26 07:17:26;;;;;;;10.03;3.47;;;20.00;54.40;;;;;;5065824;28;20225;-44
2023/05/26 07:19:58;;;;;;;13.03;3.63;;;20.00;54.40;;;;;;5068388;28;20190;-44
2023/05/26 07:22:30;;;;;;;10.33;3.73;;;20.00;54.20;;;;;;5061288;28;20654;-43
2023/05/26 07:25:07;;;;;;;10.50;3.33;;;20.10;54.30;;;;;;5071658;28;20583;-44
2023/05/26 07:27:39;;;;;;;7.83;2.90;;;20.00;54.30;;;;;;5069455;28;20205;-43
2023/05/26 07:30:11;;;;;;;11.13;3.93;;;20.00;54.30;;;;;;5074557;28;20197;-43
2023/05/26 07:32:42;;;;;;;8.67;2.87;;;20.00;54.30;;;;;;5053681;28;20272;-43
2023/05/26 07:35:12;;;;;;;9.20;3.80;;;20.10;54.30;;;;;;5046421;28;20228;-43
2023/05/26 07:37:44;;;;;;;12.50;3.30;;;20.10;54.30;;;;;;5054186;28;21127;-42
2023/05/26 07:40:18;;;;;;;8.37;3.27;;;20.00;54.10;;;;;;5068043;28;20232;-44
2023/05/26 07:42:50;;;;;;;9.63;3.10;;;20.10;54.10;;;;;;5049710;28;20220;-45
2023/05/26 07:45:25;;;;;;;9.17;3.33;;;20.10;54.10;;;;;;5044094;28;20511;-45
2023/05/26 07:47:55;;;;;;;6.33;3.00;;;20.00;54.00;;;;;;5047041;28;20195;-44
2023/05/26 07:50:25;;;;;;;9.63;3.20;;;20.10;54.10;;;;;;5062960;28;20919;-45
2023/05/26 07:52:56;;;;;;;11.60;3.93;;;20.10;54.10;;;;;;5055148;28;20222;-44
2023/05/26 07:55:27;;;;;;;7.80;3.00;;;20.10;54.00;;;;;;5062371;28;20201;-44
2023/05/26 07:57:56;;;;;;;8.23;3.10;;;20.10;54.00;;;;;;5053140;28;20207;-44
2023/05/26 08:00:27;;;;;;;7.87;3.23;;;20.10;53.80;;;;;;5061188;28;20220;-45
2023/05/26 08:02:57;;;;;;;7.77;3.13;;;20.10;53.80;;;;;;5068270;28;20565;-44
2023/05/26 08:05:28;;;;;;;11.47;3.67;;;20.10;53.90;;;;;;5071116;28;20691;-44
2023/05/26 08:07:59;;;;;;;12.00;3.80;;;20.10;53.80;;;;;;5072932;28;20635;-43
2023/05/26 08:10:29;;;;;;;10.23;3.40;;;20.10;53.80;;;;;;5046409;28;20194;-43
2023/05/26 08:12:59;;;;;;;8.10;3.17;;;20.10;53.80;;;;;;5068587;28;20201;-43
2023/05/26 08:15:32;;;;;;;12.03;3.57;;;20.10;53.80;;;;;;5056528;28;20202;-44
2023/05/26 08:18:02;;;;;;;6.73;2.67;;;20.10;53.80;;;;;;5055201;28;20202;-44
2023/05/26 08:20:34;;;;;;;10.30;3.47;;;20.10;53.80;;;;;;5068623;28;20198;-44
2023/05/26 08:23:06;;;;;;;10.67;3.57;;;20.10;53.50;;;;;;5050316;28;20219;-44
2023/05/26 08:25:35;;;;;;;9.83;3.37;;;20.10;53.70;;;;;;5062162;28;20217;-43
2023/05/26 08:28:14;;;;;;;9.67;3.27;;;20.10;53.70;;;;;;5063611;28;20272;-43
2023/05/26 08:30:44;;;;;;;7.67;3.17;;;20.10;53.70;;;;;;5073276;28;20194;-44
2023/05/26 08:33:17;;;;;;;10.53;3.53;;;20.10;53.70;;;;;;5070735;28;20229;-44
2023/05/26 08:35:46;;;;;;;10.73;3.30;;;20.10;53.70;;;;;;5070165;28;20257;-44
2023/05/26 08:38:17;;;;;;;10.47;3.20;;;20.20;53.70;;;;;;5057001;28;20186;-45
2023/05/26 08:40:51;;;;;;;10.13;3.40;;;20.20;53.80;;;;;;5070247;28;20228;-44
2023/05/26 08:43:57;;;;;;;8.10;3.10;;;20.20;53.90;;;;;;5041164;28;20745;-44
2023/05/26 08:46:36;;;;;;;9.13;3.20;;;20.20;53.90;;;;;;5066453;28;20195;-43
2023/05/26 08:49:17;;;;;;;8.00;2.70;;;20.20;53.90;;;;;;5034312;28;20199;-43
2023/05/26 08:52:06;;;;;;;8.60;3.30;;;20.20;53.90;;;;;;5054958;28;20194;-43
2023/05/26 08:54:38;;;;;;;8.23;2.70;;;20.20;53.90;;;;;;5069874;28;20198;-44
2023/05/26 08:57:10;;;;;;;8.90;2.97;;;20.20;53.80;;;;;;5069668;28;20279;-44
2023/05/26 08:59:43;;;;;;;9.87;3.40;;;20.20;53.90;;;;;;5054482;28;20202;-44
2023/05/26 09:02:12;;;;;;;7.17;3.27;;;20.20;53.80;;;;;;5067960;28;20538;-44
2023/05/26 09:04:40;;;;;;;8.33;3.10;;;20.20;53.80;;;;;;5041806;28;20659;-46
2023/05/26 09:07:11;;;;;;;9.97;3.27;;;20.20;53.90;;;;;;5064333;28;20189;-42
2023/05/26 09:10:25;;;;;;;8.60;3.40;;;20.20;53.80;;;;;;5026321;28;21622;-43
2023/05/26 09:13:17;;;;;;;9.90;2.90;;;20.20;53.70;;;;;;5023020;28;20611;-43
2023/05/26 09:15:52;;;;;;;10.10;3.40;;;20.30;53.70;;;;;;5007491;28;20272;-43
2023/05/26 09:18:44;;;;;;;8.30;3.47;;;20.30;53.70;;;;;;5012091;28;20505;-43
2023/05/26 09:21:17;;;;;;;7.13;2.93;;;20.30;53.60;;;;;;5027599;28;20226;-43
2023/05/26 09:23:56;;;;;;;10.50;3.50;;;20.20;53.60;;;;;;5030862;28;20261;-43
2023/05/26 09:26:35;;;;;;;8.83;3.30;;;20.30;53.70;;;;;;5016987;28;20444;-44
2023/05/26 09:29:11;;;;;;;7.03;2.67;;;20.30;53.70;;;;;;5057106;28;20198;-44
2023/05/26 09:31:56;;;;;;;11.30;3.17;;;20.30;53.70;;;;;;5066154;28;20202;-44
2023/05/26 09:34:24;;;;;;;7.67;2.93;;;20.30;53.70;;;;;;5062251;28;20190;-44
2023/05/26 09:36:59;;;;;;;8.10;2.90;;;20.30;53.60;;;;;;5069034;28;20244;-46
2023/05/26 09:39:34;;;;;;;8.00;3.07;;;20.30;53.50;;;;;;5047774;28;20557;-45
2023/05/26 09:42:10;;;;;;;6.93;3.10;;;20.30;53.50;;;;;;5043827;28;20236;-45
2023/05/26 09:44:47;;;;;;;5.60;2.50;;;20.30;53.60;;;;;;5052001;28;20675;-44
2023/05/26 09:47:21;;;;;;;7.47;2.90;;;20.30;53.50;;;;;;5044086;28;20579;-43
2023/05/26 09:49:51;;;;;;;7.53;2.83;;;20.30;53.50;;;;;;5066766;28;20182;-43
2023/05/26 09:52:38;;;;;;;6.17;2.97;;;20.30;53.50;;;;;;5050054;28;20206;-44
2023/05/26 09:55:08;;;;;;;6.80;3.20;;;20.30;53.50;;;;;;5059279;28;20197;-44
2023/05/26 09:57:43;;;;;;;7.63;3.50;;;20.40;53.50;;;;;;5045942;28;20290;-43
2023/05/26 10:00:14;;;;;;;8.43;3.00;;;20.40;53.30;;;;;;5067116;28;20527;-44
2023/05/26 10:02:45;;;;;;;11.50;3.20;;;20.40;53.40;;;;;;5046895;28;20225;-44
2023/05/26 10:05:18;;;;;;;7.70;3.13;;;20.40;53.40;;;;;;5067612;28;20212;-44
2023/05/26 10:08:02;;;;;;;6.93;2.43;;;20.40;53.40;;;;;;5062619;28;20309;-44
2023/05/26 10:10:36;;;;;;;6.53;2.80;;;20.40;53.50;;;;;;5052957;28;20560;-44
2023/05/26 10:13:08;;;;;;;8.17;3.07;;;20.40;53.50;;;;;;5049888;28;20693;-45
2023/05/26 10:15:39;;;;;;;7.00;2.80;;;20.40;53.50;;;;;;5049929;28;20315;-43
2023/05/26 10:18:12;;;;;;;8.67;2.97;;;20.40;53.40;;;;;;5066930;28;20213;-43
2023/05/26 10:20:47;;;;;;;7.90;3.37;;;20.50;53.60;;;;;;5069626;28;20186;-43
2023/05/26 10:23:32;;;;;;;6.37;2.50;;;20.50;53.50;;;;;;5034995;28;20221;-43
2023/05/26 10:26:26;;;;;;;6.83;2.70;;;20.50;53.60;;;;;;5041495;28;20205;-43
2023/05/26 10:29:09;;;;;;;6.97;2.93;;;20.50;53.70;;;;;;5067681;28;20202;-44
2023/05/26 10:31:40;;;;;;;5.77;2.57;;;20.50;53.60;;;;;;5053606;28;20220;-43
2023/05/26 10:34:15;;;;;;;6.10;2.43;;;20.50;53.60;;;;;;5068297;28;20209;-44
2023/05/26 10:37:00;;;;;;;5.93;2.80;;;20.50;53.40;;;;;;5039625;28;20577;-45
2023/05/26 10:39:28;;;;;;;5.80;2.60;;;20.50;53.60;;;;;;5051619;28;20221;-44
2023/05/26 10:41:58;;;;;;;6.67;2.83;;;20.50;53.60;;;;;;5069100;28;20200;-44
2023/05/26 10:44:41;;;;;;;7.93;3.10;;;20.50;53.60;;;;;;5072607;28;20638;-44
2023/05/26 10:47:21;;;;;;;6.63;2.50;;;20.50;53.30;;;;;;5043666;28;20256;-43
2023/05/26 10:49:58;;;;;;;9.10;2.67;;;20.60;54.10;;;;;;5071895;28;20197;-42
2023/05/26 10:52:49;;;;;;;6.73;2.83;;;20.60;53.50;;;;;;5078799;28;20216;-43
2023/05/26 10:55:31;;;;;;;5.63;2.53;;;20.60;53.50;;;;;;5040527;28;20199;-43
2023/05/26 10:58:38;;;;;;;9.27;3.20;;;20.60;53.60;;;;;;5025747;28;20989;-44
2023/05/26 11:01:20;;;;;;;6.97;2.93;;;20.60;53.40;;;;;;5037558;28;20226;-45
2023/05/26 11:04:04;;;;;;;6.57;3.00;;;20.70;53.70;;;;;;5063744;28;20652;-44
2023/05/26 11:07:10;;;;;;;7.73;3.10;;;20.60;53.60;;;;;;5071413;28;20217;-44
2023/05/26 11:10:02;;;;;;;6.23;2.90;;;20.60;53.70;;;;;;5024307;28;20553;-44
2023/05/26 11:12:47;;;;;;;7.00;2.87;;;20.70;53.70;;;;;;5039378;28;20205;-44
2023/05/26 11:15:30;;;;;;;8.43;3.07;;;20.70;53.80;;;;;;5056513;28;20218;-45
2023/05/26 11:18:08;;;;;;;8.30;2.80;;;20.70;53.70;;;;;;5069438;28;20210;-44
2023/05/26 11:20:44;;;;;;;6.00;2.83;;;20.70;53.60;;;;;;5059365;28;20206;-47
2023/05/26 11:23:14;;;;;;;7.60;2.83;;;20.70;53.70;;;;;;5065305;28;20214;-44
2023/05/26 11:25:46;;;;;;;5.73;1.90;;;20.70;53.70;;;;;;5040962;28;20190;-44
2023/05/26 11:28:19;;;;;;;6.13;2.53;;;20.70;53.80;;;;;;5046351;28;20265;-43
2023/05/26 11:30:50;;;;;;;7.23;2.90;;;20.70;53.80;;;;;;5061769;28;20510;-43
2023/05/26 11:33:21;;;;;;;5.63;2.40;;;20.80;53.90;;;;;;5067780;28;20202;-42
2023/05/26 11:35:52;;;;;;;6.03;2.70;;;20.70;53.90;;;;;;5051639;28;20234;-42
2023/05/26 11:38:24;;;;;;;8.73;3.10;;;20.80;54.00;;;;;;5054479;28;20640;-43
2023/05/26 11:41:08;;;;;;;5.93;3.00;;;20.80;54.00;;;;;;5071431;28;20197;-43
2023/05/26 11:43:47;;;;;;;6.87;2.70;;;20.80;54.00;;;;;;5071135;28;20205;-43
2023/05/26 11:46:20;;;;;;;6.17;2.90;;;20.80;54.00;;;;;;5051256;28;20213;-44
2023/05/26 11:48:51;;;;;;;5.77;2.30;;;20.80;54.00;;;;;;5054526;28;20198;-43
2023/05/26 11:51:20;;;;;;;6.53;3.00;;;20.80;54.00;;;;;;5053372;28;20226;-45
2023/05/26 11:53:55;;;;;;;7.23;3.07;;;20.90;54.00;;;;;;5061781;28;20225;-44
2023/05/26 11:56:44;;;;;;;7.90;3.30;;;20.90;54.00;;;;;;5051207;28;20197;-43
2023/05/26 11:59:21;;;;;;;6.37;2.57;;;20.90;53.70;;;;;;5066015;28;20642;-44
2023/05/26 12:01:53;;;;;;;7.20;2.53;;;20.90;53.80;;;;;;5070393;28;20275;-43
2023/05/26 12:04:31;;;;;;;7.33;2.70;;;20.90;53.90;;;;;;5065281;28;20252;-43
2023/05/26 12:07:05;;;;;;;9.77;3.17;;;20.90;53.60;;;;;;5070773;28;20215;-42
2023/05/26 12:09:40;;;;;;;6.63;3.20;;;21.00;53.20;;;;;;5060443;28;20209;-44
2023/05/26 12:12:10;;;;;;;6.40;2.83;;;21.00;53.60;;;;;;5071397;28;20201;-44
2023/05/26 12:14:42;;;;;;;8.10;2.77;;;21.00;53.70;;;;;;5068464;28;20627;-43
2023/05/26 12:17:13;;;;;;;6.70;2.87;;;21.00;53.70;;;;;;5058044;28;20209;-43
2023/05/26 12:19:45;;;;;;;7.93;2.83;;;21.00;53.60;;;;;;5074048;28;20201;-43
2023/05/26 12:22:14;;;;;;;6.97;2.97;;;21.00;53.60;;;;;;5055790;28;20250;-44
2023/05/26 12:24:46;;;;;;;6.53;2.70;;;21.00;53.60;;;;;;5070996;28;20201;-44
2023/05/26 12:27:18;;;;;;;6.93;3.23;;;21.00;53.30;;;;;;5055919;28;20209;-43
2023/05/26 12:29:51;;;;;;;8.00;2.60;;;21.10;52.90;;;;;;5070585;28;20194;-44
2023/05/26 12:32:27;;;;;;;7.37;2.73;;;21.10;53.10;;;;;;5069501;28;20931;-43
2023/05/26 12:35:02;;;;;;;5.10;2.47;;;21.10;53.20;;;;;;5054099;28;20202;-44
2023/05/26 12:37:31;;;;;;;9.13;2.83;;;21.10;53.50;;;;;;5059724;28;20556;-44
2023/05/26 12:40:17;;;;;;;8.63;3.30;;;21.10;53.50;;;;;;5056892;28;20298;-44
2023/05/26 12:42:47;;;;;;;6.67;2.80;;;21.10;53.60;;;;;;5062254;28;20210;-43
2023/05/26 12:45:17;;;;;;;6.27;2.33;;;21.10;53.60;;;;;;5064303;28;20202;-42
2023/05/26 12:47:48;;;;;;;6.67;2.80;;;21.20;53.80;;;;;;5065613;28;20619;-42
2023/05/26 12:50:17;;;;;;;5.97;2.47;;;21.20;53.80;;;;;;5055449;28;20263;-44
2023/05/26 12:52:49;;;;;;;4.50;2.27;;;21.20;53.90;;;;;;5049265;28;20418;-45
2023/05/26 12:55:23;;;;;;;5.53;2.47;;;21.20;53.90;;;;;;5071480;28;20270;-42
2023/05/26 12:57:54;;;;;;;4.30;2.50;;;21.20;53.50;;;;;;5071432;28;20247;-44
2023/05/26 13:00:38;;;;;;;6.13;3.00;;;21.20;53.80;;;;;;5073052;28;20227;-43
2023/05/26 13:03:10;;;;;;;5.13;2.40;;;21.20;53.80;;;;;;5060408;28;20238;-42
2023/05/26 13:05:41;;;;;;;6.77;2.50;;;21.30;53.80;;;;;;5069976;28;20206;-43
2023/05/26 13:08:13;;;;;;;6.77;2.60;;;21.20;53.80;;;;;;5074292;28;20204;-43
2023/05/26 13:10:41;;;;;;;7.80;2.37;;;21.30;53.90;;;;;;5069483;28;20202;-44
2023/05/26 13:13:12;;;;;;;5.23;2.30;;;21.30;53.50;;;;;;5069975;28;20200;-44
2023/05/26 13:15:44;;;;;;;7.37;2.90;;;21.30;53.60;;;;;;5034954;28;20670;-44
2023/05/26 13:18:19;;;;;;;6.97;2.77;;;21.30;53.60;;;;;;5067135;28;20201;-43
2023/05/26 13:20:47;;;;;;;6.57;2.30;;;21.30;53.40;;;;;;5037232;28;20588;-45